Fort Stockton-Pecos County, TX

9:21 AM CST on March 04, 2015 (GMT -0600)
Fort Stockton-Pecos County | Change Station
CLOSE
Current Station
Airport
Location: Fort Stockton,
Elevation: 3009 ft
Nearby Weather Stations

Elev 3009 ft 30.91 °N, 102.92 °W | Updated 28 minutes ago

Partly Cloudy
Partly Cloudy
53 °F
Feels Like 53 °F
N
12
Wind Variable Wind from NNW

Today
High -- | Low -- °F
--% Chance of Precip.
Yesterday
High -- | Low -- °F
Precip. -- in
7:14 AM 6:52 PM
Waxing Gibbous, 99% visible
Pressure 29.84 in
Visibility 10.0 miles
Clouds Clear
Dew Point 47 °F
Humidity 80%
Rainfall 0.00 in
Snow Depth Not available.
UV 1 out of 12
Pollen 4.80 out of 12
Air Quality Not available.
Flu Activity Not available.
METAR KFST 041453Z AUTO 34010KT 10SM CLR 12/08 A2992 RMK AO2 SLP104 T01170083 53025

More Conditions Fewer Conditions

Pressure 29.84 in
Visibility 10.0 miles
Clouds Clear
Dew Point 47 °F
Humidity 80%
Rainfall 0.00 in
Snow Depth Not available.
UV 1 out of 12
Pollen 4.80 out of 12
Air Quality Not available.
Flu Activity Not available.
METAR KFST 041453Z AUTO 34010KT 10SM CLR 12/08 A2992 RMK AO2 SLP104 T01170083 53025

More Conditions Fewer Conditions

10-Day Weather Forecast

Almanac

Astronomy

Mar. 04, 2015 Rise Set
Actual Time
Civil Twilight
Nautical Twilight
Astronomical Twilight
Moon
Length of Visible Light
Length of Day
Tomorrow will be .
, % of the Moon is Illuminated

Today's Extremes

State Highs State Lows

Community

WunderPhotos

Upload Photos

1,802,489 photos uploaded!

WunderBlogs® & News

Nearby

Air Quality

  Air Quality AQ Index Pollutant
Not available.

Snow Depth

Station Depth Elevation

Earthquake Activity

City Distance Mag. Time & Date
Minimum magnitude displayed is 2.5.

Coastal Water Temperatures

Place Temperature

Nearby Weather Stations